sensor_id;sensor_type;location;lat;lon;timestamp;P1;durP1;ratioP1;P2;durP2;ratioP2
70014;SDS011;57358;51.094;6.760;2023-03-01T00:02:01;2.35;;;2.25;;
70014;SDS011;57358;51.094;6.760;2023-03-01T00:04:28;2.40;;;2.30;;
70014;SDS011;57358;51.094;6.760;2023-03-01T00:06:55;2.83;;;2.72;;
70014;SDS011;57358;51.094;6.760;2023-03-01T00:09:21;3.13;;;2.92;;
70014;SDS011;57358;51.094;6.760;2023-03-01T00:11:48;2.42;;;2.33;;
70014;SDS011;57358;51.094;6.760;2023-03-01T00:14:15;2.50;;;2.40;;
70014;SDS011;57358;51.094;6.760;2023-03-01T00:16:44;2.55;;;2.45;;
70014;SDS011;57358;51.094;6.760;2023-03-01T00:19:16;2.75;;;2.65;;
70014;SDS011;57358;51.094;6.760;2023-03-01T00:21:45;3.58;;;3.28;;
70014;SDS011;57358;51.094;6.760;2023-03-01T00:24:12;2.78;;;2.65;;
70014;SDS011;57358;51.094;6.760;2023-03-01T00:26:39;2.50;;;2.40;;
70014;SDS011;57358;51.094;6.760;2023-03-01T00:29:06;2.72;;;2.63;;
70014;SDS011;57358;51.094;6.760;2023-03-01T00:31:32;2.75;;;2.65;;
70014;SDS011;57358;51.094;6.760;2023-03-01T00:34:01;3.90;;;3.58;;
70014;SDS011;57358;51.094;6.760;2023-03-01T00:36:32;2.60;;;2.50;;
70014;SDS011;57358;51.094;6.760;2023-03-01T00:39:01;2.40;;;2.30;;
70014;SDS011;57358;51.094;6.760;2023-03-01T00:41:30;2.83;;;2.65;;
70014;SDS011;57358;51.094;6.760;2023-03-01T00:43:56;3.10;;;2.90;;
70014;SDS011;57358;51.094;6.760;2023-03-01T00:46:25;2.92;;;2.75;;
70014;SDS011;57358;51.094;6.760;2023-03-01T00:48:53;2.90;;;2.80;;
70014;SDS011;57358;51.094;6.760;2023-03-01T00:51:21;2.70;;;2.60;;
70014;SDS011;57358;51.094;6.760;2023-03-01T00:53:55;2.65;;;2.55;;
70014;SDS011;57358;51.094;6.760;2023-03-01T00:56:26;2.30;;;2.20;;
70014;SDS011;57358;51.094;6.760;2023-03-01T00:58:52;2.92;;;2.83;;
70014;SDS011;57358;51.094;6.760;2023-03-01T01:01:20;2.70;;;2.60;;
70014;SDS011;57358;51.094;6.760;2023-03-01T01:03:55;3.50;;;3.30;;
70014;SDS011;57358;51.094;6.760;2023-03-01T01:06:25;3.08;;;2.97;;
70014;SDS011;57358;51.094;6.760;2023-03-01T01:08:54;2.90;;;2.80;;
70014;SDS011;57358;51.094;6.760;2023-03-01T01:11:22;3.22;;;3.03;;
70014;SDS011;57358;51.094;6.760;2023-03-01T01:13:50;5.93;;;3.60;;
70014;SDS011;57358;51.094;6.760;2023-03-01T01:16:19;3.00;;;2.90;;
70014;SDS011;57358;51.094;6.760;2023-03-01T01:18:47;2.63;;;2.53;;
70014;SDS011;57358;51.094;6.760;2023-03-01T01:21:14;2.55;;;2.45;;
70014;SDS011;57358;51.094;6.760;2023-03-01T01:23:43;3.42;;;3.20;;
70014;SDS011;57358;51.094;6.760;2023-03-01T01:26:12;2.70;;;2.60;;
70014;SDS011;57358;51.094;6.760;2023-03-01T01:28:41;2.75;;;2.65;;
70014;SDS011;57358;51.094;6.760;2023-03-01T01:31:07;3.03;;;2.92;;
70014;SDS011;57358;51.094;6.760;2023-03-01T01:33:34;3.53;;;3.33;;
70014;SDS011;57358;51.094;6.760;2023-03-01T01:36:06;2.83;;;2.72;;
70014;SDS011;57358;51.094;6.760;2023-03-01T01:38:34;3.22;;;3.13;;
70014;SDS011;57358;51.094;6.760;2023-03-01T01:41:01;2.65;;;2.55;;
70014;SDS011;57358;51.094;6.760;2023-03-01T01:43:30;2.60;;;2.50;;
70014;SDS011;57358;51.094;6.760;2023-03-01T01:46:05;3.47;;;3.28;;
70014;SDS011;57358;51.094;6.760;2023-03-01T01:48:43;2.88;;;2.55;;
70014;SDS011;57358;51.094;6.760;2023-03-01T01:51:18;3.08;;;2.88;;
70014;SDS011;57358;51.094;6.760;2023-03-01T01:53:51;3.03;;;2.83;;
70014;SDS011;57358;51.094;6.760;2023-03-01T01:56:21;2.75;;;2.65;;
70014;SDS011;57358;51.094;6.760;2023-03-01T01:58:50;2.50;;;2.40;;
70014;SDS011;57358;51.094;6.760;2023-03-01T02:01:16;2.85;;;2.75;;
70014;SDS011;57358;51.094;6.760;2023-03-01T02:03:43;3.08;;;2.90;;
70014;SDS011;57358;51.094;6.760;2023-03-01T02:06:18;2.97;;;2.80;;
70014;SDS011;57358;51.094;6.760;2023-03-01T02:11:23;2.40;;;2.30;;
70014;SDS011;57358;51.094;6.760;2023-03-01T02:13:51;3.20;;;2.90;;
70014;SDS011;57358;51.094;6.760;2023-03-01T02:16:21;2.75;;;2.65;;
70014;SDS011;57358;51.094;6.760;2023-03-01T02:18:48;2.45;;;2.35;;
70014;SDS011;57358;51.094;6.760;2023-03-01T02:27:09;2.60;;;2.50;;
70014;SDS011;57358;51.094;6.760;2023-03-01T02:29:36;2.75;;;2.65;;
70014;SDS011;57358;51.094;6.760;2023-03-01T02:32:03;2.40;;;2.30;;
70014;SDS011;57358;51.094;6.760;2023-03-01T02:34:31;2.38;;;2.28;;
70014;SDS011;57358;51.094;6.760;2023-03-01T02:37:03;2.90;;;2.72;;
70014;SDS011;57358;51.094;6.760;2023-03-01T02:39:37;3.95;;;3.17;;
70014;SDS011;57358;51.094;6.760;2023-03-01T02:42:09;2.97;;;2.78;;
70014;SDS011;57358;51.094;6.760;2023-03-01T02:44:38;3.05;;;2.85;;
70014;SDS011;57358;51.094;6.760;2023-03-01T02:47:05;3.13;;;2.92;;
70014;SDS011;57358;51.094;6.760;2023-03-01T02:49:34;2.35;;;2.25;;
70014;SDS011;57358;51.094;6.760;2023-03-01T02:54:56;3.70;;;3.50;;
70014;SDS011;57358;51.094;6.760;2023-03-01T02:57:24;3.20;;;3.00;;
70014;SDS011;57358;51.094;6.760;2023-03-01T02:59:54;2.45;;;2.35;;
70014;SDS011;57358;51.094;6.760;2023-03-01T03:02:25;2.40;;;2.30;;
70014;SDS011;57358;51.094;6.760;2023-03-01T03:05:11;2.40;;;2.30;;
70014;SDS011;57358;51.094;6.760;2023-03-01T03:07:40;3.08;;;2.78;;
70014;SDS011;57358;51.094;6.760;2023-03-01T03:10:10;2.30;;;2.20;;
70014;SDS011;57358;51.094;6.760;2023-03-01T03:12:39;2.70;;;2.60;;
70014;SDS011;57358;51.094;6.760;2023-03-01T03:15:06;2.75;;;2.42;;
70014;SDS011;57358;51.094;6.760;2023-03-01T03:17:35;3.75;;;3.33;;
70014;SDS011;57358;51.094;6.760;2023-03-01T03:20:04;2.00;;;1.90;;
70014;SDS011;57358;51.094;6.760;2023-03-01T03:22:31;2.22;;;2.13;;
70014;SDS011;57358;51.094;6.760;2023-03-01T03:25:00;2.25;;;2.15;;
70014;SDS011;57358;51.094;6.760;2023-03-01T03:27:27;2.40;;;2.30;;
70014;SDS011;57358;51.094;6.760;2023-03-01T03:29:54;2.75;;;2.65;;
70014;SDS011;57358;51.094;6.760;2023-03-01T03:32:21;2.60;;;2.50;;
70014;SDS011;57358;51.094;6.760;2023-03-01T03:34:47;4.50;;;3.95;;
70014;SDS011;57358;51.094;6.760;2023-03-01T03:37:16;2.25;;;2.15;;
70014;SDS011;57358;51.094;6.760;2023-03-01T03:40:01;3.83;;;3.53;;
70014;SDS011;57358;51.094;6.760;2023-03-01T03:42:28;2.58;;;2.47;;
70014;SDS011;57358;51.094;6.760;2023-03-01T03:44:54;2.50;;;2.40;;
70014;SDS011;57358;51.094;6.760;2023-03-01T03:47:21;2.90;;;2.80;;
70014;SDS011;57358;51.094;6.760;2023-03-01T03:49:47;2.30;;;2.20;;
70014;SDS011;57358;51.094;6.760;2023-03-01T03:52:14;2.85;;;2.72;;
70014;SDS011;57358;51.094;6.760;2023-03-01T03:54:40;2.55;;;2.45;;
70014;SDS011;57358;51.094;6.760;2023-03-01T03:57:07;3.08;;;2.80;;
70014;SDS011;57358;51.094;6.760;2023-03-01T03:59:33;2.50;;;2.40;;
70014;SDS011;57358;51.094;6.760;2023-03-01T04:02:00;2.50;;;2.40;;
70014;SDS011;57358;51.094;6.760;2023-03-01T04:04:26;2.95;;;2.75;;
70014;SDS011;57358;51.094;6.760;2023-03-01T04:06:53;2.40;;;2.30;;
70014;SDS011;57358;51.094;6.760;2023-03-01T04:09:19;2.45;;;2.35;;
70014;SDS011;57358;51.094;6.760;2023-03-01T04:11:45;2.75;;;2.65;;
70014;SDS011;57358;51.094;6.760;2023-03-01T04:14:12;2.28;;;2.17;;
70014;SDS011;57358;51.094;6.760;2023-03-01T04:16:38;2.80;;;2.50;;
70014;SDS011;57358;51.094;6.760;2023-03-01T04:19:05;2.40;;;2.30;;
70014;SDS011;57358;51.094;6.760;2023-03-01T04:21:32;2.17;;;2.08;;
70014;SDS011;57358;51.094;6.760;2023-03-01T04:23:58;3.65;;;2.58;;
70014;SDS011;57358;51.094;6.760;2023-03-01T04:26:25;3.17;;;2.97;;
70014;SDS011;57358;51.094;6.760;2023-03-01T04:28:53;2.33;;;2.22;;
70014;SDS011;57358;51.094;6.760;2023-03-01T04:31:19;2.47;;;2.28;;
70014;SDS011;57358;51.094;6.760;2023-03-01T04:33:54;2.78;;;2.63;;
70014;SDS011;57358;51.094;6.760;2023-03-01T04:36:23;2.95;;;2.75;;
70014;SDS011;57358;51.094;6.760;2023-03-01T04:38:51;2.20;;;2.10;;
70014;SDS011;57358;51.094;6.760;2023-03-01T04:41:18;2.53;;;2.42;;
70014;SDS011;57358;51.094;6.760;2023-03-01T04:43:46;2.55;;;2.45;;
70014;SDS011;57358;51.094;6.760;2023-03-01T04:46:15;2.95;;;2.75;;
70014;SDS011;57358;51.094;6.760;2023-03-01T04:48:43;2.10;;;2.00;;
70014;SDS011;57358;51.094;6.760;2023-03-01T04:51:11;2.17;;;2.08;;
70014;SDS011;57358;51.094;6.760;2023-03-01T04:53:40;2.20;;;2.10;;
70014;SDS011;57358;51.094;6.760;2023-03-01T04:56:08;2.67;;;2.58;;
70014;SDS011;57358;51.094;6.760;2023-03-01T04:58:34;3.00;;;2.90;;
70014;SDS011;57358;51.094;6.760;2023-03-01T05:01:01;3.00;;;2.80;;
70014;SDS011;57358;51.094;6.760;2023-03-01T05:03:27;2.47;;;2.38;;
70014;SDS011;57358;51.094;6.760;2023-03-01T05:05:54;2.25;;;2.15;;
70014;SDS011;57358;51.094;6.760;2023-03-01T05:08:25;2.55;;;2.45;;
70014;SDS011;57358;51.094;6.760;2023-03-01T05:10:53;3.45;;;3.22;;
70014;SDS011;57358;51.094;6.760;2023-03-01T05:13:20;2.72;;;2.60;;
70014;SDS011;57358;51.094;6.760;2023-03-01T05:15:54;2.88;;;2.67;;
70014;SDS011;57358;51.094;6.760;2023-03-01T05:18:23;2.95;;;2.85;;
70014;SDS011;57358;51.094;6.760;2023-03-01T05:20:52;3.80;;;3.45;;
70014;SDS011;57358;51.094;6.760;2023-03-01T05:23:19;2.90;;;2.70;;
70014;SDS011;57358;51.094;6.760;2023-03-01T05:25:45;2.75;;;2.60;;
70014;SDS011;57358;51.094;6.760;2023-03-01T05:28:11;2.83;;;2.63;;
70014;SDS011;57358;51.094;6.760;2023-03-01T05:30:41;3.20;;;3.00;;
70014;SDS011;57358;51.094;6.760;2023-03-01T05:33:07;3.20;;;2.97;;
70014;SDS011;57358;51.094;6.760;2023-03-01T05:35:42;3.08;;;2.90;;
70014;SDS011;57358;51.094;6.760;2023-03-01T05:38:10;2.53;;;2.42;;
70014;SDS011;57358;51.094;6.760;2023-03-01T05:40:45;5.78;;;2.78;;
70014;SDS011;57358;51.094;6.760;2023-03-01T05:45:40;3.47;;;3.17;;
70014;SDS011;57358;51.094;6.760;2023-03-01T05:48:07;2.53;;;2.40;;
70014;SDS011;57358;51.094;6.760;2023-03-01T05:50:36;2.78;;;2.58;;
70014;SDS011;57358;51.094;6.760;2023-03-01T05:53:06;2.70;;;2.60;;
70014;SDS011;57358;51.094;6.760;2023-03-01T05:55:36;2.40;;;2.20;;
70014;SDS011;57358;51.094;6.760;2023-03-01T05:58:04;2.25;;;2.15;;
70014;SDS011;57358;51.094;6.760;2023-03-01T06:00:33;3.92;;;3.65;;
70014;SDS011;57358;51.094;6.760;2023-03-01T06:02:59;2.65;;;2.45;;
70014;SDS011;57358;51.094;6.760;2023-03-01T06:05:26;3.03;;;2.92;;
70014;SDS011;57358;51.094;6.760;2023-03-01T06:07:54;3.28;;;2.90;;
70014;SDS011;57358;51.094;6.760;2023-03-01T06:10:21;2.67;;;2.58;;
70014;SDS011;57358;51.094;6.760;2023-03-01T06:12:48;2.22;;;2.13;;
70014;SDS011;57358;51.094;6.760;2023-03-01T06:15:15;2.30;;;2.20;;
70014;SDS011;57358;51.094;6.760;2023-03-01T06:17:43;2.90;;;2.75;;
70014;SDS011;57358;51.094;6.760;2023-03-01T06:20:11;2.42;;;2.33;;
70014;SDS011;57358;51.094;6.760;2023-03-01T06:22:39;2.67;;;2.58;;
70014;SDS011;57358;51.094;6.760;2023-03-01T06:25:06;2.53;;;2.38;;
70014;SDS011;57358;51.094;6.760;2023-03-01T06:27:33;2.55;;;2.45;;
70014;SDS011;57358;51.094;6.760;2023-03-01T06:29:59;4.10;;;3.75;;
70014;SDS011;57358;51.094;6.760;2023-03-01T06:32:26;2.67;;;2.58;;
70014;SDS011;57358;51.094;6.760;2023-03-01T06:34:52;3.75;;;2.95;;
70014;SDS011;57358;51.094;6.760;2023-03-01T06:37:19;2.67;;;2.58;;
70014;SDS011;57358;51.094;6.760;2023-03-01T06:39:45;2.15;;;2.05;;
70014;SDS011;57358;51.094;6.760;2023-03-01T06:42:11;3.67;;;3.38;;
70014;SDS011;57358;51.094;6.760;2023-03-01T06:44:38;4.13;;;3.72;;
70014;SDS011;57358;51.094;6.760;2023-03-01T06:47:04;4.68;;;3.17;;
70014;SDS011;57358;51.094;6.760;2023-03-01T06:49:31;2.45;;;2.35;;
70014;SDS011;57358;51.094;6.760;2023-03-01T06:51:57;3.30;;;3.00;;
70014;SDS011;57358;51.094;6.760;2023-03-01T06:54:23;3.38;;;3.10;;
70014;SDS011;57358;51.094;6.760;2023-03-01T06:56:50;2.67;;;2.58;;
70014;SDS011;57358;51.094;6.760;2023-03-01T06:59:17;2.67;;;2.53;;
70014;SDS011;57358;51.094;6.760;2023-03-01T07:01:43;2.60;;;2.50;;
70014;SDS011;57358;51.094;6.760;2023-03-01T07:04:12;3.15;;;3.05;;
70014;SDS011;57358;51.094;6.760;2023-03-01T07:06:39;3.10;;;3.00;;
70014;SDS011;57358;51.094;6.760;2023-03-01T07:09:06;2.13;;;2.03;;
70014;SDS011;57358;51.094;6.760;2023-03-01T07:11:32;2.30;;;2.20;;
70014;SDS011;57358;51.094;6.760;2023-03-01T07:13:59;2.35;;;2.25;;
70014;SDS011;57358;51.094;6.760;2023-03-01T07:16:26;3.08;;;2.88;;
70014;SDS011;57358;51.094;6.760;2023-03-01T07:18:52;3.40;;;3.22;;
70014;SDS011;57358;51.094;6.760;2023-03-01T07:21:19;3.50;;;3.30;;
70014;SDS011;57358;51.094;6.760;2023-03-01T07:23:47;2.80;;;2.70;;
70014;SDS011;57358;51.094;6.760;2023-03-01T07:26:15;2.13;;;2.03;;
70014;SDS011;57358;51.094;6.760;2023-03-01T07:28:41;2.70;;;2.60;;
70014;SDS011;57358;51.094;6.760;2023-03-01T07:31:07;2.45;;;2.35;;
70014;SDS011;57358;51.094;6.760;2023-03-01T07:33:34;2.90;;;2.80;;
70014;SDS011;57358;51.094;6.760;2023-03-01T07:36:01;3.03;;;2.88;;
70014;SDS011;57358;51.094;6.760;2023-03-01T07:38:29;2.33;;;2.22;;
70014;SDS011;57358;51.094;6.760;2023-03-01T07:40:59;3.05;;;2.85;;
70014;SDS011;57358;51.094;6.760;2023-03-01T07:43:28;4.10;;;3.10;;
70014;SDS011;57358;51.094;6.760;2023-03-01T07:46:01;3.00;;;2.90;;
70014;SDS011;57358;51.094;6.760;2023-03-01T07:48:29;2.67;;;2.58;;
70014;SDS011;57358;51.094;6.760;2023-03-01T07:51:03;3.20;;;3.00;;
70014;SDS011;57358;51.094;6.760;2023-03-01T07:53:31;2.65;;;2.55;;
70014;SDS011;57358;51.094;6.760;2023-03-01T07:56:07;2.22;;;2.13;;
70014;SDS011;57358;51.094;6.760;2023-03-01T07:58:35;3.63;;;3.42;;
70014;SDS011;57358;51.094;6.760;2023-03-01T08:01:07;4.45;;;4.15;;
70014;SDS011;57358;51.094;6.760;2023-03-01T08:03:36;3.55;;;3.38;;
70014;SDS011;57358;51.094;6.760;2023-03-01T08:06:04;3.90;;;3.70;;
70014;SDS011;57358;51.094;6.760;2023-03-01T08:08:32;3.13;;;2.92;;
70014;SDS011;57358;51.094;6.760;2023-03-01T08:11:00;3.47;;;3.28;;
70014;SDS011;57358;51.094;6.760;2023-03-01T08:13:30;4.75;;;4.28;;
70014;SDS011;57358;51.094;6.760;2023-03-01T08:16:01;3.35;;;3.15;;
70014;SDS011;57358;51.094;6.760;2023-03-01T08:18:32;3.17;;;3.00;;
70014;SDS011;57358;51.094;6.760;2023-03-01T08:21:02;3.78;;;3.55;;
70014;SDS011;57358;51.094;6.760;2023-03-01T08:23:39;4.85;;;4.47;;
70014;SDS011;57358;51.094;6.760;2023-03-01T08:26:09;3.67;;;3.47;;
70014;SDS011;57358;51.094;6.760;2023-03-01T08:28:38;3.80;;;3.60;;
70014;SDS011;57358;51.094;6.760;2023-03-01T08:31:19;2.63;;;2.53;;
70014;SDS011;57358;51.094;6.760;2023-03-01T08:33:49;3.67;;;3.47;;
70014;SDS011;57358;51.094;6.760;2023-03-01T08:36:24;3.25;;;3.05;;
70014;SDS011;57358;51.094;6.760;2023-03-01T08:38:56;2.83;;;2.72;;
70014;SDS011;57358;51.094;6.760;2023-03-01T08:41:23;2.95;;;2.85;;
70014;SDS011;57358;51.094;6.760;2023-03-01T08:43:50;6.28;;;3.33;;
70014;SDS011;57358;51.094;6.760;2023-03-01T08:46:17;13.10;;;5.05;;
70014;SDS011;57358;51.094;6.760;2023-03-01T08:48:43;6.22;;;3.47;;
70014;SDS011;57358;51.094;6.760;2023-03-01T08:51:15;5.18;;;3.25;;
70014;SDS011;57358;51.094;6.760;2023-03-01T08:53:45;3.92;;;3.00;;
70014;SDS011;57358;51.094;6.760;2023-03-01T08:56:12;3.70;;;3.50;;
70014;SDS011;57358;51.094;6.760;2023-03-01T08:58:40;3.42;;;3.20;;
70014;SDS011;57358;51.094;6.760;2023-03-01T09:01:11;3.40;;;3.20;;
70014;SDS011;57358;51.094;6.760;2023-03-01T09:03:38;3.83;;;3.25;;
70014;SDS011;57358;51.094;6.760;2023-03-01T09:06:05;4.15;;;3.75;;
70014;SDS011;57358;51.094;6.760;2023-03-01T09:08:37;3.13;;;3.00;;
70014;SDS011;57358;51.094;6.760;2023-03-01T09:11:06;5.95;;;5.03;;
70014;SDS011;57358;51.094;6.760;2023-03-01T09:13:33;3.67;;;3.33;;
70014;SDS011;57358;51.094;6.760;2023-03-01T09:16:01;3.25;;;3.05;;
70014;SDS011;57358;51.094;6.760;2023-03-01T09:18:29;5.25;;;4.72;;
70014;SDS011;57358;51.094;6.760;2023-03-01T09:23:34;3.70;;;3.50;;
70014;SDS011;57358;51.094;6.760;2023-03-01T09:26:02;3.88;;;3.67;;
70014;SDS011;57358;51.094;6.760;2023-03-01T09:28:29;4.85;;;4.13;;
70014;SDS011;57358;51.094;6.760;2023-03-01T09:30:59;4.40;;;4.03;;
70014;SDS011;57358;51.094;6.760;2023-03-01T09:33:26;5.93;;;4.75;;
70014;SDS011;57358;51.094;6.760;2023-03-01T09:35:57;4.15;;;3.85;;
70014;SDS011;57358;51.094;6.760;2023-03-01T09:38:28;6.20;;;5.68;;
70014;SDS011;57358;51.094;6.760;2023-03-01T09:41:09;4.63;;;4.20;;
70014;SDS011;57358;51.094;6.760;2023-03-01T09:43:50;3.80;;;3.58;;
70014;SDS011;57358;51.094;6.760;2023-03-01T09:46:31;3.72;;;3.50;;
70014;SDS011;57358;51.094;6.760;2023-03-01T09:49:28;4.53;;;4.32;;
70014;SDS011;57358;51.094;6.760;2023-03-01T09:54:45;5.15;;;4.72;;
70014;SDS011;57358;51.094;6.760;2023-03-01T09:57:20;5.32;;;4.55;;
70014;SDS011;57358;51.094;6.760;2023-03-01T10:05:43;6.72;;;5.10;;
70014;SDS011;57358;51.094;6.760;2023-03-01T10:08:24;4.03;;;3.83;;
70014;SDS011;57358;51.094;6.760;2023-03-01T10:10:55;4.22;;;3.70;;
70014;SDS011;57358;51.094;6.760;2023-03-01T10:13:26;4.22;;;3.85;;
70014;SDS011;57358;51.094;6.760;2023-03-01T10:16:05;4.93;;;4.20;;
70014;SDS011;57358;51.094;6.760;2023-03-01T10:18:40;4.30;;;3.90;;
70014;SDS011;57358;51.094;6.760;2023-03-01T10:21:12;5.82;;;4.85;;
70014;SDS011;57358;51.094;6.760;2023-03-01T10:23:42;5.07;;;4.70;;
70014;SDS011;57358;51.094;6.760;2023-03-01T10:26:12;4.28;;;3.97;;
70014;SDS011;57358;51.094;6.760;2023-03-01T10:31:13;4.78;;;4.30;;
70014;SDS011;57358;51.094;6.760;2023-03-01T10:33:46;5.22;;;4.22;;
70014;SDS011;57358;51.094;6.760;2023-03-01T10:36:14;6.28;;;5.15;;
70014;SDS011;57358;51.094;6.760;2023-03-01T10:39:15;5.97;;;5.57;;
70014;SDS011;57358;51.094;6.760;2023-03-01T10:41:52;5.38;;;4.95;;
70014;SDS011;57358;51.094;6.760;2023-03-01T10:47:19;6.07;;;5.13;;
70014;SDS011;57358;51.094;6.760;2023-03-01T10:52:23;6.72;;;6.13;;
70014;SDS011;57358;51.094;6.760;2023-03-01T10:54:54;7.97;;;5.97;;
70014;SDS011;57358;51.094;6.760;2023-03-01T10:57:33;4.55;;;4.25;;
70014;SDS011;57358;51.094;6.760;2023-03-01T11:02:38;4.75;;;4.40;;
70014;SDS011;57358;51.094;6.760;2023-03-01T11:07:51;6.30;;;5.05;;
70014;SDS011;57358;51.094;6.760;2023-03-01T11:10:21;6.47;;;5.95;;
70014;SDS011;57358;51.094;6.760;2023-03-01T11:12:52;5.85;;;5.45;;
70014;SDS011;57358;51.094;6.760;2023-03-01T11:15:21;5.43;;;5.03;;
70014;SDS011;57358;51.094;6.760;2023-03-01T11:17:55;5.25;;;4.80;;
70014;SDS011;57358;51.094;6.760;2023-03-01T11:20:38;6.32;;;5.25;;
70014;SDS011;57358;51.094;6.760;2023-03-01T11:23:11;5.90;;;5.30;;
70014;SDS011;57358;51.094;6.760;2023-03-01T11:25:40;6.30;;;5.80;;
70014;SDS011;57358;51.094;6.760;2023-03-01T11:28:11;8.20;;;6.22;;
70014;SDS011;57358;51.094;6.760;2023-03-01T11:36:07;5.70;;;5.30;;
70014;SDS011;57358;51.094;6.760;2023-03-01T11:38:42;6.00;;;5.45;;
70014;SDS011;57358;51.094;6.760;2023-03-01T11:41:13;7.43;;;5.05;;
70014;SDS011;57358;51.094;6.760;2023-03-01T12:09:17;7.53;;;6.07;;
70014;SDS011;57358;51.094;6.760;2023-03-01T12:20:20;8.18;;;6.03;;
70014;SDS011;57358;51.094;6.760;2023-03-01T12:26:52;7.57;;;5.20;;
70014;SDS011;57358;51.094;6.760;2023-03-01T12:34:25;6.57;;;5.80;;
70014;SDS011;57358;51.094;6.760;2023-03-01T12:37:15;8.13;;;6.30;;
70014;SDS011;57358;51.094;6.760;2023-03-01T12:42:36;8.40;;;7.15;;
70014;SDS011;57358;51.094;6.760;2023-03-01T12:45:28;5.95;;;5.45;;
70014;SDS011;57358;51.094;6.760;2023-03-01T12:50:53;6.65;;;6.00;;
70014;SDS011;57358;51.094;6.760;2023-03-01T12:53:25;6.22;;;5.55;;
70014;SDS011;57358;51.094;6.760;2023-03-01T12:55:56;18.38;;;5.45;;
70014;SDS011;57358;51.094;6.760;2023-03-01T13:04:18;7.32;;;6.63;;
70014;SDS011;57358;51.094;6.760;2023-03-01T13:07:27;7.82;;;6.15;;
70014;SDS011;57358;51.094;6.760;2023-03-01T13:09:55;5.80;;;5.35;;
70014;SDS011;57358;51.094;6.760;2023-03-01T13:17:50;7.28;;;6.38;;
70014;SDS011;57358;51.094;6.760;2023-03-01T13:20:20;9.60;;;6.47;;
70014;SDS011;57358;51.094;6.760;2023-03-01T13:22:49;6.50;;;6.00;;
70014;SDS011;57358;51.094;6.760;2023-03-01T13:25:32;5.75;;;5.25;;
70014;SDS011;57358;51.094;6.760;2023-03-01T13:37:08;5.78;;;5.18;;
70014;SDS011;57358;51.094;6.760;2023-03-01T13:39:05;8.23;;;6.00;;
70014;SDS011;57358;51.094;6.760;2023-03-01T13:41:57;5.10;;;4.60;;
70014;SDS011;57358;51.094;6.760;2023-03-01T13:44:30;6.00;;;5.28;;
70014;SDS011;57358;51.094;6.760;2023-03-01T13:47:03;6.20;;;5.35;;
70014;SDS011;57358;51.094;6.760;2023-03-01T13:55:05;5.25;;;4.93;;
70014;SDS011;57358;51.094;6.760;2023-03-01T13:57:50;5.43;;;5.03;;
70014;SDS011;57358;51.094;6.760;2023-03-01T14:00:35;5.55;;;5.07;;
70014;SDS011;57358;51.094;6.760;2023-03-01T14:08:39;6.07;;;5.63;;
70014;SDS011;57358;51.094;6.760;2023-03-01T14:19:40;5.25;;;4.53;;
70014;SDS011;57358;51.094;6.760;2023-03-01T14:22:21;5.88;;;5.28;;
70014;SDS011;57358;51.094;6.760;2023-03-01T14:24:51;6.32;;;5.18;;
70014;SDS011;57358;51.094;6.760;2023-03-01T14:27:20;5.90;;;5.40;;
70014;SDS011;57358;51.094;6.760;2023-03-01T14:29:54;7.22;;;6.55;;
70014;SDS011;57358;51.094;6.760;2023-03-01T14:32:27;5.80;;;4.72;;
70014;SDS011;57358;51.094;6.760;2023-03-01T14:37:32;5.93;;;5.35;;
70014;SDS011;57358;51.094;6.760;2023-03-01T14:40:01;5.15;;;4.78;;
70014;SDS011;57358;51.094;6.760;2023-03-01T14:42:34;7.05;;;6.10;;
70014;SDS011;57358;51.094;6.760;2023-03-01T14:45:02;7.45;;;4.75;;
70014;SDS011;57358;51.094;6.760;2023-03-01T14:47:34;5.30;;;4.95;;
70014;SDS011;57358;51.094;6.760;2023-03-01T14:52:44;6.63;;;5.22;;
70014;SDS011;57358;51.094;6.760;2023-03-01T14:55:16;5.68;;;5.22;;
70014;SDS011;57358;51.094;6.760;2023-03-01T14:57:50;4.70;;;4.43;;
70014;SDS011;57358;51.094;6.760;2023-03-01T15:00:27;5.20;;;4.88;;
70014;SDS011;57358;51.094;6.760;2023-03-01T15:02:55;6.20;;;5.70;;
70014;SDS011;57358;51.094;6.760;2023-03-01T15:05:27;6.28;;;5.68;;
70014;SDS011;57358;51.094;6.760;2023-03-01T15:07:57;8.70;;;5.30;;
70014;SDS011;57358;51.094;6.760;2023-03-01T15:10:26;6.43;;;5.07;;
70014;SDS011;57358;51.094;6.760;2023-03-01T15:12:54;6.93;;;5.05;;
70014;SDS011;57358;51.094;6.760;2023-03-01T15:17:53;6.88;;;6.20;;
70014;SDS011;57358;51.094;6.760;2023-03-01T15:20:24;4.88;;;4.57;;
70014;SDS011;57358;51.094;6.760;2023-03-01T15:22:53;6.65;;;5.72;;
70014;SDS011;57358;51.094;6.760;2023-03-01T15:25:23;4.85;;;4.53;;
70014;SDS011;57358;51.094;6.760;2023-03-01T15:27:51;7.05;;;5.85;;
70014;SDS011;57358;51.094;6.760;2023-03-01T15:30:21;7.25;;;5.57;;
70014;SDS011;57358;51.094;6.760;2023-03-01T15:33:15;5.78;;;5.25;;
70014;SDS011;57358;51.094;6.760;2023-03-01T15:35:49;5.20;;;4.78;;
70014;SDS011;57358;51.094;6.760;2023-03-01T15:38:26;10.65;;;5.50;;
70014;SDS011;57358;51.094;6.760;2023-03-01T15:40:53;6.07;;;5.60;;
70014;SDS011;57358;51.094;6.760;2023-03-01T15:43:37;6.22;;;5.63;;
70014;SDS011;57358;51.094;6.760;2023-03-01T15:46:05;5.55;;;5.15;;
70014;SDS011;57358;51.094;6.760;2023-03-01T15:48:38;5.13;;;4.53;;
70014;SDS011;57358;51.094;6.760;2023-03-01T15:51:09;5.25;;;4.85;;
70014;SDS011;57358;51.094;6.760;2023-03-01T15:53:39;6.07;;;4.65;;
70014;SDS011;57358;51.094;6.760;2023-03-01T15:56:19;6.03;;;4.95;;
70014;SDS011;57358;51.094;6.760;2023-03-01T15:58:45;7.03;;;5.45;;
70014;SDS011;57358;51.094;6.760;2023-03-01T16:01:13;5.13;;;4.72;;
70014;SDS011;57358;51.094;6.760;2023-03-01T16:03:41;5.60;;;4.78;;
70014;SDS011;57358;51.094;6.760;2023-03-01T16:06:08;5.10;;;4.70;;
70014;SDS011;57358;51.094;6.760;2023-03-01T16:08:36;5.30;;;4.90;;
70014;SDS011;57358;51.094;6.760;2023-03-01T16:11:04;7.35;;;5.22;;
70014;SDS011;57358;51.094;6.760;2023-03-01T16:13:35;5.78;;;5.25;;
70014;SDS011;57358;51.094;6.760;2023-03-01T16:16:01;13.65;;;12.85;;
70014;SDS011;57358;51.094;6.760;2023-03-01T16:18:35;9.05;;;4.95;;
70014;SDS011;57358;51.094;6.760;2023-03-01T16:21:01;8.23;;;5.60;;
70014;SDS011;57358;51.094;6.760;2023-03-01T16:23:28;5.63;;;4.63;;
70014;SDS011;57358;51.094;6.760;2023-03-01T16:25:58;5.85;;;5.07;;
70014;SDS011;57358;51.094;6.760;2023-03-01T16:28:25;4.93;;;4.53;;
70014;SDS011;57358;51.094;6.760;2023-03-01T16:30:54;5.03;;;4.65;;
70014;SDS011;57358;51.094;6.760;2023-03-01T16:33:21;5.00;;;4.43;;
70014;SDS011;57358;51.094;6.760;2023-03-01T16:36:00;4.40;;;4.10;;
70014;SDS011;57358;51.094;6.760;2023-03-01T16:38:28;4.82;;;4.18;;
70014;SDS011;57358;51.094;6.760;2023-03-01T16:40:56;5.97;;;5.53;;
70014;SDS011;57358;51.094;6.760;2023-03-01T16:43:23;5.45;;;4.95;;
70014;SDS011;57358;51.094;6.760;2023-03-01T16:45:49;5.10;;;4.68;;
70014;SDS011;57358;51.094;6.760;2023-03-01T16:48:16;4.43;;;3.97;;
70014;SDS011;57358;51.094;6.760;2023-03-01T16:50:43;5.30;;;4.80;;
70014;SDS011;57358;51.094;6.760;2023-03-01T16:53:09;5.72;;;4.35;;
70014;SDS011;57358;51.094;6.760;2023-03-01T16:55:36;4.05;;;3.83;;
70014;SDS011;57358;51.094;6.760;2023-03-01T16:58:03;4.55;;;4.25;;
70014;SDS011;57358;51.094;6.760;2023-03-01T17:00:30;4.28;;;4.03;;
70014;SDS011;57358;51.094;6.760;2023-03-01T17:02:57;5.30;;;4.80;;
70014;SDS011;57358;51.094;6.760;2023-03-01T17:05:23;4.82;;;4.43;;
70014;SDS011;57358;51.094;6.760;2023-03-01T17:07:51;4.18;;;3.70;;
70014;SDS011;57358;51.094;6.760;2023-03-01T17:10:17;4.53;;;4.22;;
70014;SDS011;57358;51.094;6.760;2023-03-01T17:12:44;5.65;;;4.85;;
70014;SDS011;57358;51.094;6.760;2023-03-01T17:15:14;4.47;;;4.18;;
70014;SDS011;57358;51.094;6.760;2023-03-01T17:17:40;3.97;;;3.78;;
70014;SDS011;57358;51.094;6.760;2023-03-01T17:20:07;5.32;;;4.70;;
70014;SDS011;57358;51.094;6.760;2023-03-01T17:22:34;3.70;;;3.50;;
70014;SDS011;57358;51.094;6.760;2023-03-01T17:25:00;5.40;;;4.90;;